Time;durP1;ratioP1;P1;durP2;ratioP2;P2;SDS_P1;SDS_P2;PMS_P1;PMS_P2;Temp;Humidity;BMP_temperature;BMP_pressure;BME280_temperature;BME280_humidity;BME280_pressure;Samples;Min_cycle;Max_cycle;Signal;HPM_P1;HPM_P2
2023/09/01 00:02:24;;;;;;;;;;;;;;;;;;6314007;28;20073;-73
2023/09/01 00:05:24;;;;;;;;;;;;;;;;;;6306456;28;19999;-72
2023/09/01 00:08:25;;;;;;;;;;;;;;;;;;6322160;28;19912;-73
2023/09/01 00:11:25;;;;;;;;;;;;;;;;;;6309145;28;20307;-73
2023/09/01 00:14:25;;;;;;;;;;;;;;;;;;6294342;28;19920;-72
2023/09/01 00:17:25;;;;;;;;;;;;;;;;;;6319442;28;19915;-73
2023/09/01 00:20:26;;;;;;;;;;;;;;;;;;6318567;28;20367;-73
2023/09/01 00:23:26;;;;;;;;;;;;;;;;;;6320367;28;20370;-73
2023/09/01 00:26:26;;;;;;;;;;;;;;;;;;6295660;28;19920;-72
2023/09/01 00:29:27;;;;;;;;;;;;;;;;;;6280534;28;20034;-72
2023/09/01 00:32:27;;;;;;;;;;;;;;;;;;6296628;28;20021;-72
2023/09/01 00:35:27;;;;;;;;;;;;;;;;;;6317443;28;20007;-72
2023/09/01 00:38:29;;;;;;;;;;;;;;;;;;6327009;28;19985;-73
2023/09/01 00:41:29;;;;;;;;;;;;;;;;;;6319736;28;19965;-73
2023/09/01 00:44:29;;;;;;;;;;;;;;;;;;6320491;28;19912;-73
2023/09/01 00:47:29;;;;;;;;;;;;;;;;;;6319472;28;19920;-73
2023/09/01 00:50:29;;;;;;;;;;;;;;;;;;6316533;28;19924;-72
2023/09/01 00:53:29;;;;;;;;;;;;;;;;;;6319544;28;19916;-72
2023/09/01 00:56:30;;;;;;;;;;;;;;;;;;6320683;28;20306;-72
2023/09/01 00:59:30;;;;;;;;;;;;;;;;;;6307905;28;19920;-72
2023/09/01 01:02:30;;;;;;;;;;;;;;;;;;6314009;28;19920;-72
2023/09/01 01:05:30;;;;;;;;;;;;;;;;;;6303789;28;19920;-72
2023/09/01 01:08:30;;;;;;;;;;;;;;;;;;6306186;28;19938;-72
2023/09/01 01:11:31;;;;;;;;;;;;;;;;;;6301413;28;20205;-72
2023/09/01 01:14:31;;;;;;;;;;;;;;;;;;6305588;28;20424;-72
2023/09/01 01:17:32;;;;;;;;;;;;;;;;;;6294594;28;19948;-72
2023/09/01 01:20:33;;;;;;;;;;;;;;;;;;6295196;28;19924;-72
2023/09/01 01:23:33;;;;;;;;;;;;;;;;;;6295388;28;20033;-73
2023/09/01 01:26:34;;;;;;;;;;;;;;;;;;6307460;28;20382;-72
2023/09/01 01:29:34;;;;;;;;;;;;;;;;;;6317997;28;19912;-73
2023/09/01 01:32:34;;;;;;;;;;;;;;;;;;6317667;28;19920;-73
2023/09/01 01:35:34;;;;;;;;;;;;;;;;;;6324431;28;20361;-73
2023/09/01 01:38:34;;;;;;;;;;;;;;;;;;6323808;28;19916;-73
2023/09/01 01:41:34;;;;;;;;;;;;;;;;;;6317150;28;19920;-73
2023/09/01 01:44:34;;;;;;;;;;;;;;;;;;6322703;28;19916;-73
2023/09/01 01:47:34;;;;;;;;;;;;;;;;;;6323330;28;19916;-73
2023/09/01 01:50:36;;;;;;;;;;;;;;;;;;6321495;28;20012;-73
2023/09/01 01:53:36;;;;;;;;;;;;;;;;;;6322580;28;19999;-73
2023/09/01 01:56:36;;;;;;;;;;;;;;;;;;6306510;28;19912;-73
2023/09/01 01:59:36;;;;;;;;;;;;;;;;;;6310013;28;19948;-73
2023/09/01 02:02:36;;;;;;;;;;;;;;;;;;6319884;28;19924;-73
2023/09/01 02:05:36;;;;;;;;;;;;;;;;;;6313548;28;19919;-72
2023/09/01 02:08:37;;;;;;;;;;;;;;;;;;6311702;28;19909;-72
2023/09/01 02:11:37;;;;;;;;;;;;;;;;;;6320694;28;19991;-73
2023/09/01 02:14:37;;;;;;;;;;;;;;;;;;6338841;28;19986;-73
2023/09/01 02:17:37;;;;;;;;;;;;;;;;;;6317417;28;19913;-73
2023/09/01 02:20:37;;;;;;;;;;;;;;;;;;6281772;28;19920;-72
2023/09/01 02:23:37;;;;;;;;;;;;;;;;;;6311265;28;20003;-73
2023/09/01 02:26:37;;;;;;;;;;;;;;;;;;6324106;28;19931;-72
2023/09/01 02:29:38;;;;;;;;;;;;;;;;;;6325262;28;19924;-72
2023/09/01 02:32:38;;;;;;;;;;;;;;;;;;6338932;28;19913;-73
2023/09/01 02:35:38;;;;;;;;;;;;;;;;;;6308810;28;20488;-72
2023/09/01 02:38:38;;;;;;;;;;;;;;;;;;6310583;28;19917;-73
2023/09/01 02:41:40;;;;;;;;;;;;;;;;;;6323847;28;19924;-73
2023/09/01 02:44:40;;;;;;;;;;;;;;;;;;6317211;28;19912;-73
2023/09/01 02:47:43;;;;;;;;;;;;;;;;;;6324548;28;19908;-72
2023/09/01 02:50:43;;;;;;;;;;;;;;;;;;6310778;28;19947;-73
2023/09/01 02:53:43;;;;;;;;;;;;;;;;;;6326071;28;19912;-73
2023/09/01 02:56:43;;;;;;;;;;;;;;;;;;6317258;28;20036;-73
2023/09/01 02:59:43;;;;;;;;;;;;;;;;;;6300998;28;19962;-73
2023/09/01 03:02:43;;;;;;;;;;;;;;;;;;6302595;28;19947;-73
2023/09/01 03:05:43;;;;;;;;;;;;;;;;;;6314060;28;20374;-73
2023/09/01 03:08:44;;;;;;;;;;;;;;;;;;6307544;28;19963;-72
2023/09/01 03:11:44;;;;;;;;;;;;;;;;;;6316788;28;19927;-73
2023/09/01 03:14:44;;;;;;;;;;;;;;;;;;6305128;28;19919;-73
2023/09/01 03:17:44;;;;;;;;;;;;;;;;;;6321216;28;19977;-73
2023/09/01 03:20:44;;;;;;;;;;;;;;;;;;6326400;28;19973;-73
2023/09/01 03:23:45;;;;;;;;;;;;;;;;;;6315843;28;20358;-73
2023/09/01 03:26:45;;;;;;;;;;;;;;;;;;6316564;28;19923;-73
2023/09/01 03:29:45;;;;;;;;;;;;;;;;;;6325871;28;19997;-73
2023/09/01 03:32:45;;;;;;;;;;;;;;;;;;6322718;28;19908;-73
2023/09/01 03:35:45;;;;;;;;;;;;;;;;;;6322097;28;19939;-73
2023/09/01 03:38:45;;;;;;;;;;;;;;;;;;6287728;28;19935;-73
2023/09/01 03:41:45;;;;;;;;;;;;;;;;;;6301690;28;19916;-73
2023/09/01 03:44:45;;;;;;;;;;;;;;;;;;6312910;28;19962;-73
2023/09/01 03:47:46;;;;;;;;;;;;;;;;;;6314957;28;20003;-73
2023/09/01 03:50:46;;;;;;;;;;;;;;;;;;6302129;28;20003;-72
2023/09/01 03:53:46;;;;;;;;;;;;;;;;;;6303133;28;19912;-73
2023/09/01 03:56:46;;;;;;;;;;;;;;;;;;6321601;28;19951;-73
2023/09/01 03:59:48;;;;;;;;;;;;;;;;;;6315844;28;20378;-73
2023/09/01 04:02:48;;;;;;;;;;;;;;;;;;6320360;28;20018;-74
2023/09/01 04:05:49;;;;;;;;;;;;;;;;;;6321505;28;19915;-72
2023/09/01 04:08:49;;;;;;;;;;;;;;;;;;6289583;28;20063;-73
2023/09/01 04:11:49;;;;;;;;;;;;;;;;;;6318107;28;20286;-73
2023/09/01 04:14:50;;;;;;;;;;;;;;;;;;6317743;28;20606;-73
2023/09/01 04:17:50;;;;;;;;;;;;;;;;;;6298563;28;19916;-73
2023/09/01 04:20:50;;;;;;;;;;;;;;;;;;6312788;28;19981;-73
2023/09/01 04:23:50;;;;;;;;;;;;;;;;;;6311126;28;19926;-73
2023/09/01 04:26:50;;;;;;;;;;;;;;;;;;6300608;28;19912;-73
2023/09/01 04:29:51;;;;;;;;;;;;;;;;;;6310805;28;19932;-73
2023/09/01 04:32:51;;;;;;;;;;;;;;;;;;6315778;28;19935;-73
2023/09/01 04:35:51;;;;;;;;;;;;;;;;;;6323739;28;19913;-73
2023/09/01 04:38:52;;;;;;;;;;;;;;;;;;6317219;28;19988;-72
2023/09/01 04:41:52;;;;;;;;;;;;;;;;;;6324395;28;20014;-71
2023/09/01 04:44:52;;;;;;;;;;;;;;;;;;6336299;28;19912;-72
2023/09/01 04:47:53;;;;;;;;;;;;;;;;;;6321837;28;19983;-72
2023/09/01 04:50:53;;;;;;;;;;;;;;;;;;6308485;28;19925;-72
2023/09/01 04:53:53;;;;;;;;;;;;;;;;;;6305844;28;20587;-71
2023/09/01 04:56:54;;;;;;;;;;;;;;;;;;6297158;28;19920;-72
2023/09/01 04:59:54;;;;;;;;;;;;;;;;;;6318021;28;19930;-72
2023/09/01 05:02:54;;;;;;;;;;;;;;;;;;6314246;28;19928;-72
2023/09/01 05:05:54;;;;;;;;;;;;;;;;;;6299757;28;19916;-72
2023/09/01 05:08:55;;;;;;;;;;;;;;;;;;6305485;28;19919;-72
2023/09/01 05:11:55;;;;;;;;;;;;;;;;;;6308535;28;20281;-72
2023/09/01 05:14:55;;;;;;;;;;;;;;;;;;6301621;28;20000;-72
2023/09/01 05:17:55;;;;;;;;;;;;;;;;;;6309695;28;19909;-72
2023/09/01 05:20:55;;;;;;;;;;;;;;;;;;6321402;28;20003;-72
2023/09/01 05:23:56;;;;;;;;;;;;;;;;;;6319346;28;19998;-72
2023/09/01 05:26:56;;;;;;;;;;;;;;;;;;6314602;28;19920;-71
2023/09/01 05:29:56;;;;;;;;;;;;;;;;;;6309250;28;19916;-71
2023/09/01 05:32:56;;;;;;;;;;;;;;;;;;6306872;28;19912;-71
2023/09/01 05:35:56;;;;;;;;;;;;;;;;;;6318094;28;19991;-71
2023/09/01 05:38:56;;;;;;;;;;;;;;;;;;6316278;28;19930;-71
2023/09/01 05:41:56;;;;;;;;;;;;;;;;;;6297425;28;20358;-71
2023/09/01 05:44:56;;;;;;;;;;;;;;;;;;6309108;28;20468;-71
2023/09/01 05:47:57;;;;;;;;;;;;;;;;;;5946212;28;9999853;-74
2023/09/01 05:50:57;;;;;;;;;;;;;;;;;;6305806;28;19920;-74
2023/09/01 05:53:57;;;;;;;;;;;;;;;;;;6313785;28;20447;-74
2023/09/01 05:56:57;;;;;;;;;;;;;;;;;;6293620;28;19996;-74
2023/09/01 05:59:58;;;;;;;;;;;;;;;;;;6285405;28;19916;-75
2023/09/01 06:02:58;;;;;;;;;;;;;;;;;;6306665;28;19944;-74
2023/09/01 06:05:58;;;;;;;;;;;;;;;;;;6304820;28;19912;-75
2023/09/01 06:08:58;;;;;;;;;;;;;;;;;;6318465;28;19916;-73
2023/09/01 06:11:59;;;;;;;;;;;;;;;;;;6311299;28;19978;-75
2023/09/01 06:14:59;;;;;;;;;;;;;;;;;;6305573;28;20002;-75
2023/09/01 06:17:59;;;;;;;;;;;;;;;;;;6322233;28;20290;-74
2023/09/01 06:20:59;;;;;;;;;;;;;;;;;;6306762;28;19920;-73
2023/09/01 06:23:59;;;;;;;;;;;;;;;;;;6344675;28;19901;-75
2023/09/01 06:26:59;;;;;;;;;;;;;;;;;;6339117;28;19927;-73
2023/09/01 06:29:59;;;;;;;;;;;;;;;;;;6322803;28;19912;-73
2023/09/01 06:33:00;;;;;;;;;;;;;;;;;;6310303;28;20461;-74
2023/09/01 06:36:01;;;;;;;;;;;;;;;;;;6299819;28;19920;-73
2023/09/01 06:39:02;;;;;;;;;;;;;;;;;;6316598;28;20461;-74
2023/09/01 06:42:02;;;;;;;;;;;;;;;;;;6296111;28;20014;-74
2023/09/01 06:45:03;;;;;;;;;;;;;;;;;;6303589;28;19920;-73
2023/09/01 06:48:03;;;;;;;;;;;;;;;;;;6342496;28;20305;-74
2023/09/01 06:51:05;;;;;;;;;;;;;;;;;;6321118;28;19944;-74
2023/09/01 06:54:05;;;;;;;;;;;;;;;;;;6314686;28;19916;-74
2023/09/01 06:57:05;;;;;;;;;;;;;;;;;;6311608;28;20270;-74
2023/09/01 07:00:06;;;;;;;;;;;;;;;;;;6317734;28;19931;-74
2023/09/01 07:03:06;;;;;;;;;;;;;;;;;;6318540;28;20329;-74
2023/09/01 07:06:07;;;;;;;;;;;;;;;;;;6327672;28;19924;-73
2023/09/01 07:09:08;;;;;;;;;;;;;;;;;;6337345;28;19916;-73
2023/09/01 07:12:08;;;;;;;;;;;;;;;;;;6309477;28;19916;-73
2023/09/01 07:15:08;;;;;;;;;;;;;;;;;;6333682;28;19916;-73
2023/09/01 07:18:08;;;;;;;;;;;;;;;;;;6319627;28;19916;-74
2023/09/01 07:21:08;;;;;;;;;;;;;;;;;;6308763;28;20401;-75
2023/09/01 07:24:11;;;;;;;;;;;;;;;;;;6320018;28;19919;-75
2023/09/01 07:27:11;;;;;;;;;;;;;;;;;;6320213;28;19923;-74
2023/09/01 07:30:13;;;;;;;;;;;;;;;;;;6308544;28;19916;-75
2023/09/01 07:33:13;;;;;;;;;;;;;;;;;;6303100;28;20274;-74
2023/09/01 07:36:13;;;;;;;;;;;;;;;;;;6308744;28;20393;-73
2023/09/01 07:39:14;;;;;;;;;;;;;;;;;;6310603;28;20442;-73
2023/09/01 07:42:14;;;;;;;;;;;;;;;;;;6303783;28;19921;-74
2023/09/01 07:45:14;;;;;;;;;;;;;;;;;;6303407;28;19927;-73
2023/09/01 07:48:14;;;;;;;;;;;;;;;;;;6313588;28;20484;-73
2023/09/01 07:51:14;;;;;;;;;;;;;;;;;;6295391;28;20406;-72
2023/09/01 07:54:14;;;;;;;;;;;;;;;;;;6297012;28;20394;-73
2023/09/01 07:57:15;;;;;;;;;;;;;;;;;;6284512;28;19927;-72
2023/09/01 08:00:17;;;;;;;;;;;;;;;;;;6312385;28;19928;-74
2023/09/01 08:03:17;;;;;;;;;;;;;;;;;;6307205;28;20420;-74
2023/09/01 08:06:17;;;;;;;;;;;;;;;;;;6314293;28;19913;-75
2023/09/01 08:09:17;;;;;;;;;;;;;;;;;;6308430;28;19989;-74
2023/09/01 08:12:17;;;;;;;;;;;;;;;;;;6305421;28;19917;-73
2023/09/01 08:15:17;;;;;;;;;;;;;;;;;;6307623;28;19916;-74
2023/09/01 08:18:17;;;;;;;;;;;;;;;;;;6308083;28;20006;-74
2023/09/01 08:21:18;;;;;;;;;;;;;;;;;;6308863;28;19922;-74
2023/09/01 08:24:18;;;;;;;;;;;;;;;;;;6298355;28;19964;-75
2023/09/01 08:27:18;;;;;;;;;;;;;;;;;;6320105;28;20293;-74
2023/09/01 08:30:19;;;;;;;;;;;;;;;;;;6317456;28;19908;-75
2023/09/01 08:33:21;;;;;;;;;;;;;;;;;;6319460;28;20366;-74
2023/09/01 08:36:21;;;;;;;;;;;;;;;;;;6295451;28;19917;-74
2023/09/01 08:39:21;;;;;;;;;;;;;;;;;;6296736;28;20409;-75
2023/09/01 08:42:21;;;;;;;;;;;;;;;;;;6311236;28;19920;-74
2023/09/01 08:45:22;;;;;;;;;;;;;;;;;;6304802;28;19962;-75
2023/09/01 08:48:22;;;;;;;;;;;;;;;;;;6343623;28;19920;-75
2023/09/01 08:51:22;;;;;;;;;;;;;;;;;;6309709;28;20374;-75
2023/09/01 08:54:22;;;;;;;;;;;;;;;;;;6303058;28;19923;-74
2023/09/01 08:57:22;;;;;;;;;;;;;;;;;;6308150;28;19919;-74
2023/09/01 09:00:22;;;;;;;;;;;;;;;;;;6319208;28;19942;-75
2023/09/01 09:03:22;;;;;;;;;;;;;;;;;;6318193;28;20316;-75
2023/09/01 09:06:22;;;;;;;;;;;;;;;;;;6303091;28;20382;-75
2023/09/01 09:09:22;;;;;;;;;;;;;;;;;;6303564;28;19916;-75
2023/09/01 09:12:23;;;;;;;;;;;;;;;;;;6317881;28;19918;-75
2023/09/01 09:15:23;;;;;;;;;;;;;;;;;;5958461;28;9999809;-74
2023/09/01 09:18:23;;;;;;;;;;;;;;;;;;6298809;28;20365;-74
2023/09/01 09:21:23;;;;;;;;;;;;;;;;;;6320257;28;19919;-74
2023/09/01 09:24:24;;;;;;;;;;;;;;;;;;6305217;28;19916;-72
2023/09/01 09:27:24;;;;;;;;;;;;;;;;;;6304858;28;19916;-73
2023/09/01 09:30:27;;;;;;;;;;;;;;;;;;6310387;28;20401;-74
2023/09/01 09:33:27;;;;;;;;;;;;;;;;;;6327038;28;19912;-73
2023/09/01 09:36:27;;;;;;;;;;;;;;;;;;6301686;28;19912;-73
2023/09/01 09:39:27;;;;;;;;;;;;;;;;;;6313142;28;19936;-73
2023/09/01 09:42:27;;;;;;;;;;;;;;;;;;6313672;28;20018;-74
2023/09/01 09:45:28;;;;;;;;;;;;;;;;;;6309170;28;19913;-74
2023/09/01 09:48:28;;;;;;;;;;;;;;;;;;6304600;28;20394;-73
2023/09/01 09:51:28;;;;;;;;;;;;;;;;;;6315921;28;19920;-74
2023/09/01 09:54:28;;;;;;;;;;;;;;;;;;6307450;28;19916;-75
2023/09/01 09:57:28;;;;;;;;;;;;;;;;;;6323274;28;19912;-74
2023/09/01 10:00:28;;;;;;;;;;;;;;;;;;6319896;28;19923;-74
2023/09/01 10:03:29;;;;;;;;;;;;;;;;;;6322191;28;20016;-73
2023/09/01 10:06:29;;;;;;;;;;;;;;;;;;6322741;28;19955;-74
2023/09/01 10:09:29;;;;;;;;;;;;;;;;;;6324790;28;19923;-75
2023/09/01 10:12:29;;;;;;;;;;;;;;;;;;6316236;28;20275;-75
2023/09/01 10:15:29;;;;;;;;;;;;;;;;;;6313746;28;20011;-74
2023/09/01 10:18:30;;;;;;;;;;;;;;;;;;6300072;28;19922;-74
2023/09/01 10:21:30;;;;;;;;;;;;;;;;;;6317369;28;20014;-75
2023/09/01 10:24:30;;;;;;;;;;;;;;;;;;6300345;28;19916;-74
2023/09/01 10:27:30;;;;;;;;;;;;;;;;;;6324092;28;19924;-74
2023/09/01 10:30:31;;;;;;;;;;;;;;;;;;6308438;28;19927;-75
2023/09/01 10:33:31;;;;;;;;;;;;;;;;;;6323098;28;20034;-75
2023/09/01 10:36:31;;;;;;;;;;;;;;;;;;6319466;28;19913;-75
2023/09/01 10:39:31;;;;;;;;;;;;;;;;;;6321374;28;20388;-75
2023/09/01 10:42:31;;;;;;;;;;;;;;;;;;6322151;28;19932;-75
2023/09/01 10:45:31;;;;;;;;;;;;;;;;;;6320695;28;19923;-75
2023/09/01 10:48:31;;;;;;;;;;;;;;;;;;6327429;28;19932;-75
2023/09/01 10:51:37;;;;;;;;;;;;;;;;;;6299238;28;19978;-75
2023/09/01 10:54:37;;;;;;;;;;;;;;;;;;6302917;28;20000;-75
2023/09/01 10:57:37;;;;;;;;;;;;;;;;;;6315589;28;20019;-75
2023/09/01 11:00:37;;;;;;;;;;;;;;;;;;6296833;28;19916;-75
2023/09/01 11:03:39;;;;;;;;;;;;;;;;;;6307858;28;20425;-74
2023/09/01 11:06:39;;;;;;;;;;;;;;;;;;6323739;28;19908;-74
2023/09/01 11:09:39;;;;;;;;;;;;;;;;;;6304198;28;19959;-74
2023/09/01 11:12:39;;;;;;;;;;;;;;;;;;6298631;28;20383;-74
2023/09/01 11:15:40;;;;;;;;;;;;;;;;;;5977590;27;9999785;-75
2023/09/01 11:18:40;;;;;;;;;;;;;;;;;;6318956;28;19989;-75
2023/09/01 11:21:40;;;;;;;;;;;;;;;;;;6317277;28;20080;-74
2023/09/01 11:24:40;;;;;;;;;;;;;;;;;;6302585;28;19920;-74
2023/09/01 11:27:40;;;;;;;;;;;;;;;;;;6303894;28;19931;-75
2023/09/01 11:30:40;;;;;;;;;;;;;;;;;;6325441;28;20408;-75
2023/09/01 11:33:42;;;;;;;;;;;;;;;;;;6322734;28;19915;-75
2023/09/01 11:36:42;;;;;;;;;;;;;;;;;;6323192;28;20381;-75
2023/09/01 11:39:42;;;;;;;;;;;;;;;;;;6304607;28;19909;-74
2023/09/01 11:42:43;;;;;;;;;;;;;;;;;;6322757;28;20039;-74
2023/09/01 11:45:43;;;;;;;;;;;;;;;;;;6321080;28;19908;-74
2023/09/01 11:48:43;;;;;;;;;;;;;;;;;;6309715;28;19912;-74
2023/09/01 11:51:43;;;;;;;;;;;;;;;;;;6299907;28;19920;-74
2023/09/01 11:54:43;;;;;;;;;;;;;;;;;;6309520;28;19931;-73
2023/09/01 11:57:44;;;;;;;;;;;;;;;;;;6320246;28;20331;-74
2023/09/01 12:00:44;;;;;;;;;;;;;;;;;;6316663;28;19928;-74
2023/09/01 12:03:45;;;;;;;;;;;;;;;;;;6321642;28;19935;-75
2023/09/01 12:06:46;;;;;;;;;;;;;;;;;;6337720;28;20286;-74
2023/09/01 12:09:46;;;;;;;;;;;;;;;;;;6322357;28;20442;-75
2023/09/01 12:12:46;;;;;;;;;;;;;;;;;;6322321;28;19991;-75
2023/09/01 12:15:46;;;;;;;;;;;;;;;;;;6316332;28;19916;-75
2023/09/01 12:18:46;;;;;;;;;;;;;;;;;;6307881;28;19919;-75
2023/09/01 12:21:47;;;;;;;;;;;;;;;;;;6322445;28;19973;-76
2023/09/01 12:24:47;;;;;;;;;;;;;;;;;;6322606;28;20374;-75
2023/09/01 12:27:47;;;;;;;;;;;;;;;;;;6322683;28;20022;-75
2023/09/01 12:30:47;;;;;;;;;;;;;;;;;;6313271;28;19908;-76
2023/09/01 12:33:47;;;;;;;;;;;;;;;;;;6321901;28;19912;-75
2023/09/01 12:36:49;;;;;;;;;;;;;;;;;;6333049;28;19913;-76
2023/09/01 12:39:49;;;;;;;;;;;;;;;;;;6326134;28;19912;-76
2023/09/01 12:42:50;;;;;;;;;;;;;;;;;;6308412;28;19992;-76
2023/09/01 12:45:50;;;;;;;;;;;;;;;;;;6331625;28;19908;-75
2023/09/01 12:48:50;;;;;;;;;;;;;;;;;;6322294;28;19999;-75
2023/09/01 12:51:50;;;;;;;;;;;;;;;;;;6305432;28;19981;-74
2023/09/01 12:54:52;;;;;;;;;;;;;;;;;;6302107;28;19913;-75
2023/09/01 12:57:52;;;;;;;;;;;;;;;;;;6318058;28;20258;-74
2023/09/01 13:00:52;;;;;;;;;;;;;;;;;;6307442;28;19920;-75
2023/09/01 13:03:52;;;;;;;;;;;;;;;;;;6307717;28;19913;-75
2023/09/01 13:06:52;;;;;;;;;;;;;;;;;;6315230;28;19912;-76
2023/09/01 13:09:52;;;;;;;;;;;;;;;;;;6320002;28;19993;-75
2023/09/01 13:12:53;;;;;;;;;;;;;;;;;;6320339;28;20378;-76
2023/09/01 13:15:53;;;;;;;;;;;;;;;;;;6297947;28;19916;-75
2023/09/01 13:18:53;;;;;;;;;;;;;;;;;;6308581;28;19935;-76
2023/09/01 13:21:53;;;;;;;;;;;;;;;;;;6316314;28;20378;-76
2023/09/01 13:24:55;;;;;;;;;;;;;;;;;;6293584;28;19939;-75
2023/09/01 13:27:55;;;;;;;;;;;;;;;;;;6320577;28;19952;-75
2023/09/01 13:30:55;;;;;;;;;;;;;;;;;;6311260;28;19915;-74
2023/09/01 13:33:55;;;;;;;;;;;;;;;;;;6300939;28;20003;-74
2023/09/01 13:36:55;;;;;;;;;;;;;;;;;;6322658;28;19912;-75
2023/09/01 13:39:58;;;;;;;;;;;;;;;;;;6319796;28;20006;-75
2023/09/01 13:42:58;;;;;;;;;;;;;;;;;;6310548;28;19913;-75
2023/09/01 13:46:00;;;;;;;;;;;;;;;;;;6308664;28;19912;-75
2023/09/01 13:49:00;;;;;;;;;;;;;;;;;;6326717;28;20007;-74
2023/09/01 13:52:00;;;;;;;;;;;;;;;;;;6325949;28;19920;-75
2023/09/01 13:55:00;;;;;;;;;;;;;;;;;;6320542;28;19912;-75
2023/09/01 13:58:00;;;;;;;;;;;;;;;;;;6325833;28;19912;-75
2023/09/01 14:01:01;;;;;;;;;;;;;;;;;;6313005;28;19939;-75
2023/09/01 14:04:01;;;;;;;;;;;;;;;;;;6337712;28;19930;-76
2023/09/01 14:07:01;;;;;;;;;;;;;;;;;;6324465;28;19941;-76
2023/09/01 14:10:02;;;;;;;;;;;;;;;;;;6330552;28;20027;-75
2023/09/01 14:13:02;;;;;;;;;;;;;;;;;;6314642;28;20382;-75
2023/09/01 14:16:02;;;;;;;;;;;;;;;;;;6315957;28;20442;-75
2023/09/01 14:19:02;;;;;;;;;;;;;;;;;;6325221;28;20267;-75
2023/09/01 14:22:02;;;;;;;;;;;;;;;;;;6315922;28;19959;-75
2023/09/01 14:25:02;;;;;;;;;;;;;;;;;;6318693;28;20380;-75
2023/09/01 14:28:03;;;;;;;;;;;;;;;;;;6325037;28;19912;-75
2023/09/01 14:31:03;;;;;;;;;;;;;;;;;;6318830;28;20277;-75
2023/09/01 14:34:03;;;;;;;;;;;;;;;;;;6317369;28;19915;-75
2023/09/01 14:37:03;;;;;;;;;;;;;;;;;;6324414;28;19912;-75
2023/09/01 14:40:03;;;;;;;;;;;;;;;;;;6325062;28;19961;-75
2023/09/01 14:43:03;;;;;;;;;;;;;;;;;;6313492;28;19920;-75
2023/09/01 14:46:03;;;;;;;;;;;;;;;;;;6330809;28;19908;-75
2023/09/01 14:49:06;;;;;;;;;;;;;;;;;;6333469;28;19916;-75
2023/09/01 14:52:08;;;;;;;;;;;;;;;;;;6326974;28;19927;-75
2023/09/01 14:55:08;;;;;;;;;;;;;;;;;;6311630;28;19929;-75
2023/09/01 14:58:08;;;;;;;;;;;;;;;;;;6314990;28;19908;-76
2023/09/01 15:01:09;;;;;;;;;;;;;;;;;;6320310;28;19924;-76
2023/09/01 15:04:10;;;;;;;;;;;;;;;;;;6327231;28;19916;-75
2023/09/01 15:07:10;;;;;;;;;;;;;;;;;;6314947;28;19957;-75
2023/09/01 15:10:10;;;;;;;;;;;;;;;;;;6331316;28;19920;-75
2023/09/01 15:13:10;;;;;;;;;;;;;;;;;;6328481;28;19908;-75
2023/09/01 15:16:10;;;;;;;;;;;;;;;;;;6327760;28;20378;-75
2023/09/01 15:19:12;;;;;;;;;;;;;;;;;;6320009;28;19913;-71
2023/09/01 15:22:14;;;;;;;;;;;;;;;;;;6315673;28;19916;-71
2023/09/01 15:25:14;;;;;;;;;;;;;;;;;;6320650;28;20358;-71
2023/09/01 15:28:14;;;;;;;;;;;;;;;;;;6317163;28;19916;-72
2023/09/01 15:31:14;;;;;;;;;;;;;;;;;;6319936;28;19945;-70
2023/09/01 15:34:14;;;;;;;;;;;;;;;;;;6322122;28;20007;-70
2023/09/01 15:37:15;;;;;;;;;;;;;;;;;;6288181;28;19975;-71
2023/09/01 15:40:15;;;;;;;;;;;;;;;;;;6318320;28;19912;-71
2023/09/01 15:43:16;;;;;;;;;;;;;;;;;;6324926;28;19917;-71
2023/09/01 15:46:16;;;;;;;;;;;;;;;;;;6322857;28;20358;-71
2023/09/01 15:49:16;;;;;;;;;;;;;;;;;;6308182;28;19950;-72
2023/09/01 15:52:16;;;;;;;;;;;;;;;;;;6327289;28;19963;-72
2023/09/01 15:55:17;;;;;;;;;;;;;;;;;;6309682;28;19918;-72
2023/09/01 15:58:17;;;;;;;;;;;;;;;;;;6319346;28;20374;-71
2023/09/01 16:01:17;;;;;;;;;;;;;;;;;;6325420;28;19955;-72
2023/09/01 16:04:17;;;;;;;;;;;;;;;;;;6347259;27;20063;-72
2023/09/01 16:07:17;;;;;;;;;;;;;;;;;;6338485;28;19908;-71
2023/09/01 16:10:17;;;;;;;;;;;;;;;;;;6307366;28;19947;-72
2023/09/01 16:13:18;;;;;;;;;;;;;;;;;;6318826;28;19947;-73
2023/09/01 16:16:18;;;;;;;;;;;;;;;;;;6310757;28;19999;-72
2023/09/01 16:19:20;;;;;;;;;;;;;;;;;;6302048;28;19912;-72
2023/09/01 16:22:21;;;;;;;;;;;;;;;;;;6311906;28;19916;-72
2023/09/01 16:25:21;;;;;;;;;;;;;;;;;;6309172;28;20420;-72
2023/09/01 16:28:22;;;;;;;;;;;;;;;;;;6305171;28;19912;-75
2023/09/01 16:31:22;;;;;;;;;;;;;;;;;;6307440;28;20019;-75
2023/09/01 16:34:22;;;;;;;;;;;;;;;;;;6308435;28;19912;-75
2023/09/01 16:37:22;;;;;;;;;;;;;;;;;;6319827;28;19919;-75
2023/09/01 16:40:24;;;;;;;;;;;;;;;;;;6318587;28;19912;-75
2023/09/01 16:43:25;;;;;;;;;;;;;;;;;;6316672;28;20439;-75
2023/09/01 16:46:26;;;;;;;;;;;;;;;;;;6304173;28;19916;-75
2023/09/01 16:49:26;;;;;;;;;;;;;;;;;;6300223;28;19923;-74
2023/09/01 16:52:26;;;;;;;;;;;;;;;;;;6304144;28;19959;-75
2023/09/01 16:55:27;;;;;;;;;;;;;;;;;;6289556;28;19969;-75
2023/09/01 16:58:27;;;;;;;;;;;;;;;;;;6331823;28;20263;-74
2023/09/01 17:01:27;;;;;;;;;;;;;;;;;;6329127;28;19924;-74
2023/09/01 17:04:29;;;;;;;;;;;;;;;;;;6315512;28;20449;-74
2023/09/01 17:07:29;;;;;;;;;;;;;;;;;;6301373;28;19913;-75
2023/09/01 17:10:29;;;;;;;;;;;;;;;;;;6312427;28;19969;-75
2023/09/01 17:13:29;;;;;;;;;;;;;;;;;;6318555;28;19935;-76
2023/09/01 17:16:29;;;;;;;;;;;;;;;;;;6296668;28;19916;-75
2023/09/01 17:19:31;;;;;;;;;;;;;;;;;;6298671;28;19924;-75
2023/09/01 17:22:31;;;;;;;;;;;;;;;;;;6330114;28;19912;-75
2023/09/01 17:25:31;;;;;;;;;;;;;;;;;;6306376;28;19967;-75
2023/09/01 17:28:32;;;;;;;;;;;;;;;;;;6299577;28;19923;-75
2023/09/01 17:31:32;;;;;;;;;;;;;;;;;;6310152;28;19917;-76
2023/09/01 17:34:33;;;;;;;;;;;;;;;;;;6297538;28;19916;-76
2023/09/01 17:37:37;;;;;;;;;;;;;;;;;;6303422;28;19919;-76
2023/09/01 17:40:40;;;;;;;;;;;;;;;;;;6303241;28;20255;-75
2023/09/01 17:43:40;;;;;;;;;;;;;;;;;;6309521;28;19965;-75
2023/09/01 17:46:40;;;;;;;;;;;;;;;;;;6305783;28;19965;-76
2023/09/01 17:49:40;;;;;;;;;;;;;;;;;;6323638;28;19912;-76
2023/09/01 17:52:42;;;;;;;;;;;;;;;;;;6330305;28;19940;-75
2023/09/01 17:55:49;;;;;;;;;;;;;;;;;;6320943;28;19912;-76
2023/09/01 17:58:49;;;;;;;;;;;;;;;;;;6303822;28;20022;-76
2023/09/01 18:01:49;;;;;;;;;;;;;;;;;;6332759;28;19915;-76
2023/09/01 18:04:50;;;;;;;;;;;;;;;;;;6315360;28;19965;-76
2023/09/01 18:07:51;;;;;;;;;;;;;;;;;;6308746;28;19919;-75
2023/09/01 18:10:51;;;;;;;;;;;;;;;;;;6321776;28;20412;-76
2023/09/01 18:13:51;;;;;;;;;;;;;;;;;;6315829;28;19979;-76
2023/09/01 18:16:52;;;;;;;;;;;;;;;;;;6303927;28;19919;-74
2023/09/01 18:19:54;;;;;;;;;;;;;;;;;;6304251;28;20296;-76
2023/09/01 18:22:56;;;;;;;;;;;;;;;;;;6308043;28;19916;-77
2023/09/01 18:25:56;;;;;;;;;;;;;;;;;;6304779;28;19920;-77
2023/09/01 18:28:57;;;;;;;;;;;;;;;;;;6303795;28;19943;-76
2023/09/01 18:31:57;;;;;;;;;;;;;;;;;;6304424;28;19916;-76
2023/09/01 18:34:57;;;;;;;;;;;;;;;;;;6305525;28;19948;-76
2023/09/01 18:37:58;;;;;;;;;;;;;;;;;;6302383;28;19912;-75
2023/09/01 18:41:00;;;;;;;;;;;;;;;;;;6313715;28;19912;-76
2023/09/01 18:44:00;;;;;;;;;;;;;;;;;;6305256;28;19912;-77
2023/09/01 18:47:02;;;;;;;;;;;;;;;;;;6309612;28;19916;-75
2023/09/01 18:50:02;;;;;;;;;;;;;;;;;;6314000;28;19924;-76
2023/09/01 18:53:03;;;;;;;;;;;;;;;;;;6304613;28;20221;-75
2023/09/01 18:56:03;;;;;;;;;;;;;;;;;;6318169;28;19998;-75
2023/09/01 18:59:03;;;;;;;;;;;;;;;;;;6302573;28;19920;-75
2023/09/01 19:02:04;;;;;;;;;;;;;;;;;;6302580;28;19922;-75
2023/09/01 19:05:04;;;;;;;;;;;;;;;;;;6303405;28;19912;-76
2023/09/01 19:08:04;;;;;;;;;;;;;;;;;;6346781;28;19939;-74
2023/09/01 19:11:06;;;;;;;;;;;;;;;;;;6324550;28;20027;-76
2023/09/01 19:14:06;;;;;;;;;;;;;;;;;;6297123;28;20446;-74
2023/09/01 19:17:06;;;;;;;;;;;;;;;;;;6297534;28;19970;-75
2023/09/01 19:20:06;;;;;;;;;;;;;;;;;;6298939;28;19916;-75
2023/09/01 19:23:06;;;;;;;;;;;;;;;;;;6298603;28;20038;-75
2023/09/01 19:26:07;;;;;;;;;;;;;;;;;;6314078;28;20378;-75
2023/09/01 19:29:08;;;;;;;;;;;;;;;;;;6307291;28;19922;-75
2023/09/01 19:32:08;;;;;;;;;;;;;;;;;;6311670;28;19916;-74
2023/09/01 19:35:11;;;;;;;;;;;;;;;;;;6311932;28;19947;-75
2023/09/01 19:38:11;;;;;;;;;;;;;;;;;;6303803;28;20305;-75
2023/09/01 19:41:11;;;;;;;;;;;;;;;;;;6299922;28;19912;-75
2023/09/01 19:44:11;;;;;;;;;;;;;;;;;;6303646;28;19913;-75
2023/09/01 19:47:11;;;;;;;;;;;;;;;;;;6298567;28;19971;-76
2023/09/01 19:50:11;;;;;;;;;;;;;;;;;;6302859;28;19912;-76
2023/09/01 19:53:11;;;;;;;;;;;;;;;;;;6296824;28;19931;-76
2023/09/01 19:56:12;;;;;;;;;;;;;;;;;;6304647;28;19912;-76
2023/09/01 19:59:12;;;;;;;;;;;;;;;;;;6312259;28;19920;-72
2023/09/01 20:02:12;;;;;;;;;;;;;;;;;;6280825;28;19922;-72
2023/09/01 20:05:12;;;;;;;;;;;;;;;;;;6279319;28;19912;-73
2023/09/01 20:08:14;;;;;;;;;;;;;;;;;;6304848;28;19916;-73
2023/09/01 20:11:15;;;;;;;;;;;;;;;;;;6303157;28;20414;-72
2023/09/01 20:14:15;;;;;;;;;;;;;;;;;;6313892;28;19965;-72
2023/09/01 20:17:16;;;;;;;;;;;;;;;;;;6296430;28;20338;-73
2023/09/01 20:20:16;;;;;;;;;;;;;;;;;;6294057;28;19920;-72
2023/09/01 20:23:16;;;;;;;;;;;;;;;;;;6295400;28;19924;-74
2023/09/01 20:26:16;;;;;;;;;;;;;;;;;;6299602;28;20015;-72
2023/09/01 20:29:16;;;;;;;;;;;;;;;;;;6295157;28;19969;-73
2023/09/01 20:32:17;;;;;;;;;;;;;;;;;;6290933;28;20003;-73